sensor_id;sensor_type;location;lat;lon;timestamp;pressure;altitude;pressure_sealevel;temperature;humidity
61961;BME280;47923;42.506;24.192;2023-06-14T00:01:37;95237.88;;;16.63;94.23
61961;BME280;47923;42.506;24.192;2023-06-14T00:04:03;94770.22;;;13.30;93.87
61961;BME280;47923;42.506;24.192;2023-06-14T00:06:34;95174.72;;;16.19;95.36
61961;BME280;47923;42.506;24.192;2023-06-14T00:08:59;95240.59;;;16.63;95.02
61961;BME280;47923;42.506;24.192;2023-06-14T00:11:24;95119.66;;;15.90;94.64
61961;BME280;47923;42.506;24.192;2023-06-14T00:13:52;95232.00;;;16.68;95.34
61961;BME280;47923;42.506;24.192;2023-06-14T00:16:17;95238.59;;;16.70;95.22
61961;BME280;47923;42.506;24.192;2023-06-14T00:18:44;95161.84;;;16.23;94.51
61961;BME280;47923;42.506;24.192;2023-06-14T00:21:11;95219.53;;;16.63;93.80
61961;BME280;47923;42.506;24.192;2023-06-14T00:23:37;95027.69;;;15.49;95.06
61961;BME280;47923;42.506;24.192;2023-06-14T00:26:03;95260.03;;;16.68;96.13
61961;BME280;47923;42.506;24.192;2023-06-14T00:28:29;95215.97;;;16.73;96.62
61961;BME280;47923;42.506;24.192;2023-06-14T00:30:54;95104.00;;;16.01;96.20
61961;BME280;47923;42.506;24.192;2023-06-14T00:33:20;95166.13;;;16.21;96.47
61961;BME280;47923;42.506;24.192;2023-06-14T00:35:46;95085.06;;;15.87;97.26
61961;BME280;47923;42.506;24.192;2023-06-14T00:38:12;95198.06;;;16.69;98.00
61961;BME280;47923;42.506;24.192;2023-06-14T00:40:37;95229.91;;;16.86;98.29
61961;BME280;47923;42.506;24.192;2023-06-14T00:43:03;95229.47;;;16.88;97.85
61961;BME280;47923;42.506;24.192;2023-06-14T00:45:28;95212.06;;;16.74;97.85
61961;BME280;47923;42.506;24.192;2023-06-14T00:47:54;94671.03;;;13.15;96.41
61961;BME280;47923;42.506;24.192;2023-06-14T00:50:20;95233.69;;;16.96;95.57
61961;BME280;47923;42.506;24.192;2023-06-14T00:52:47;94760.25;;;13.93;95.43
61961;BME280;47923;42.506;24.192;2023-06-14T00:55:12;94637.34;;;13.09;95.35
61961;BME280;47923;42.506;24.192;2023-06-14T00:57:38;94891.03;;;14.69;95.34
61961;BME280;47923;42.506;24.192;2023-06-14T01:00:05;94972.66;;;15.28;94.92
61961;BME280;47923;42.506;24.192;2023-06-14T01:02:38;95218.91;;;16.97;95.00
61961;BME280;47923;42.506;24.192;2023-06-14T01:05:04;94711.53;;;13.68;94.23
61961;BME280;47923;42.506;24.192;2023-06-14T01:08:15;95214.94;;;17.01;94.82
61961;BME280;47923;42.506;24.192;2023-06-14T01:10:58;95006.06;;;15.32;94.18
61961;BME280;47923;42.506;24.192;2023-06-14T01:13:39;95067.00;;;16.04;94.97
61961;BME280;47923;42.506;24.192;2023-06-14T01:16:06;94924.56;;;15.10;94.81
61961;BME280;47923;42.506;24.192;2023-06-14T01:18:34;94914.50;;;15.04;94.96
61961;BME280;47923;42.506;24.192;2023-06-14T01:21:00;94925.03;;;14.98;95.41
61961;BME280;47923;42.506;24.192;2023-06-14T01:23:31;95028.03;;;15.66;94.87
61961;BME280;47923;42.506;24.192;2023-06-14T01:26:00;94898.34;;;14.86;94.47
61961;BME280;47923;42.506;24.192;2023-06-14T01:28:28;95204.16;;;16.87;93.54
61961;BME280;47923;42.506;24.192;2023-06-14T01:31:00;95205.69;;;16.88;93.13
61961;BME280;47923;42.506;24.192;2023-06-14T01:33:30;95206.47;;;16.89;92.41
61961;BME280;47923;42.506;24.192;2023-06-14T01:35:57;95206.13;;;16.87;92.30
61961;BME280;47923;42.506;24.192;2023-06-14T01:38:27;94880.94;;;14.76;91.86
61961;BME280;47923;42.506;24.192;2023-06-14T01:40:55;94950.91;;;15.24;91.56
61961;BME280;47923;42.506;24.192;2023-06-14T01:43:22;95175.47;;;16.68;91.83
61961;BME280;47923;42.506;24.192;2023-06-14T01:45:51;95106.94;;;16.25;91.99
61961;BME280;47923;42.506;24.192;2023-06-14T01:48:16;94887.59;;;14.64;91.35
61961;BME280;47923;42.506;24.192;2023-06-14T01:50:42;94842.06;;;14.02;91.88
61961;BME280;47923;42.506;24.192;2023-06-14T01:53:08;94862.16;;;14.23;93.31
61961;BME280;47923;42.506;24.192;2023-06-14T01:55:34;94965.75;;;15.16;93.65
61961;BME280;47923;42.506;24.192;2023-06-14T01:58:03;95132.53;;;16.35;94.06
61961;BME280;47923;42.506;24.192;2023-06-14T02:00:28;95205.38;;;16.82;94.37
61961;BME280;47923;42.506;24.192;2023-06-14T02:02:54;95207.72;;;16.80;94.51
61961;BME280;47923;42.506;24.192;2023-06-14T02:05:19;95153.09;;;16.46;94.37
61961;BME280;47923;42.506;24.192;2023-06-14T02:07:46;95198.47;;;16.67;94.37
61961;BME280;47923;42.506;24.192;2023-06-14T02:10:11;95133.31;;;16.35;94.29
61961;BME280;47923;42.506;24.192;2023-06-14T02:12:37;95160.81;;;16.51;93.57
61961;BME280;47923;42.506;24.192;2023-06-14T02:15:02;95216.66;;;16.84;93.40
61961;BME280;47923;42.506;24.192;2023-06-14T02:17:29;95121.69;;;16.27;92.76
61961;BME280;47923;42.506;24.192;2023-06-14T02:19:54;94859.31;;;14.51;92.82
61961;BME280;47923;42.506;24.192;2023-06-14T02:22:22;95149.59;;;16.42;92.68
61961;BME280;47923;42.506;24.192;2023-06-14T02:24:48;94830.69;;;14.29;91.65
61961;BME280;47923;42.506;24.192;2023-06-14T02:27:13;95198.00;;;16.79;92.20
61961;BME280;47923;42.506;24.192;2023-06-14T02:29:39;95220.88;;;16.93;92.04
61961;BME280;47923;42.506;24.192;2023-06-14T02:32:05;95213.47;;;16.93;92.20
61961;BME280;47923;42.506;24.192;2023-06-14T02:34:33;95224.00;;;16.91;92.61
61961;BME280;47923;42.506;24.192;2023-06-14T02:36:59;95212.81;;;16.78;92.97
61961;BME280;47923;42.506;24.192;2023-06-14T02:39:24;95155.41;;;16.48;93.50
61961;BME280;47923;42.506;24.192;2023-06-14T02:41:50;95109.31;;;16.19;92.82
61961;BME280;47923;42.506;24.192;2023-06-14T02:44:17;94981.16;;;15.37;92.43
61961;BME280;47923;42.506;24.192;2023-06-14T02:46:43;95185.63;;;16.64;92.78
61961;BME280;47923;42.506;24.192;2023-06-14T02:49:09;94970.41;;;15.12;93.14
61961;BME280;47923;42.506;24.192;2023-06-14T02:51:35;95225.91;;;16.94;93.72
61961;BME280;47923;42.506;24.192;2023-06-14T02:54:01;95193.03;;;16.67;94.32
61961;BME280;47923;42.506;24.192;2023-06-14T02:56:26;94968.81;;;15.18;93.84
61961;BME280;47923;42.506;24.192;2023-06-14T02:58:53;94886.91;;;14.39;94.38
61961;BME280;47923;42.506;24.192;2023-06-14T03:01:18;95230.25;;;16.88;95.50
61961;BME280;47923;42.506;24.192;2023-06-14T03:03:45;94975.81;;;15.23;94.78
61961;BME280;47923;42.506;24.192;2023-06-14T03:06:11;95232.63;;;16.86;94.71
61961;BME280;47923;42.506;24.192;2023-06-14T03:08:40;95010.28;;;15.40;94.83
61961;BME280;47923;42.506;24.192;2023-06-14T03:11:07;95233.41;;;16.87;94.43
61961;BME280;47923;42.506;24.192;2023-06-14T03:13:36;95114.47;;;16.07;94.10
61961;BME280;47923;42.506;24.192;2023-06-14T03:16:02;95166.38;;;16.41;93.60
61961;BME280;47923;42.506;24.192;2023-06-14T03:18:31;95232.31;;;16.77;93.67
61961;BME280;47923;42.506;24.192;2023-06-14T03:21:03;94701.63;;;13.26;93.33
61961;BME280;47923;42.506;24.192;2023-06-14T03:23:29;95242.72;;;16.89;93.61
61961;BME280;47923;42.506;24.192;2023-06-14T03:25:54;95238.06;;;16.86;93.80
61961;BME280;47923;42.506;24.192;2023-06-14T03:28:21;95256.78;;;16.88;94.25
61961;BME280;47923;42.506;24.192;2023-06-14T03:30:46;95234.94;;;16.88;95.33
61961;BME280;47923;42.506;24.192;2023-06-14T03:33:12;95173.47;;;16.31;95.51
61961;BME280;47923;42.506;24.192;2023-06-14T03:35:37;95239.56;;;16.94;94.98
61961;BME280;47923;42.506;24.192;2023-06-14T03:38:02;94940.09;;;14.36;94.34
61961;BME280;47923;42.506;24.192;2023-06-14T03:40:29;94937.53;;;14.92;94.89
61961;BME280;47923;42.506;24.192;2023-06-14T03:42:54;95253.91;;;17.05;94.15
61961;BME280;47923;42.506;24.192;2023-06-14T03:45:20;95259.66;;;17.11;94.29
61961;BME280;47923;42.506;24.192;2023-06-14T03:47:46;95275.38;;;17.00;94.46
61961;BME280;47923;42.506;24.192;2023-06-14T03:50:12;94908.84;;;14.84;94.28
61961;BME280;47923;42.506;24.192;2023-06-14T03:52:38;94869.81;;;14.42;94.32
61961;BME280;47923;42.506;24.192;2023-06-14T03:55:04;95250.63;;;17.21;94.60
61961;BME280;47923;42.506;24.192;2023-06-14T03:57:30;94865.13;;;14.53;92.09
61961;BME280;47923;42.506;24.192;2023-06-14T03:59:55;94945.69;;;14.88;91.09
61961;BME280;47923;42.506;24.192;2023-06-14T04:02:21;95255.50;;;17.37;91.50
61961;BME280;47923;42.506;24.192;2023-06-14T04:04:47;95255.06;;;17.42;91.44
61961;BME280;47923;42.506;24.192;2023-06-14T04:07:14;94893.91;;;15.06;90.21
61961;BME280;47923;42.506;24.192;2023-06-14T04:09:40;95239.88;;;17.41;89.86
61961;BME280;47923;42.506;24.192;2023-06-14T04:12:06;94669.66;;;13.66;89.66
61961;BME280;47923;42.506;24.192;2023-06-14T04:14:34;95289.94;;;17.65;89.93
61961;BME280;47923;42.506;24.192;2023-06-14T04:17:00;95241.63;;;17.58;89.70
61961;BME280;47923;42.506;24.192;2023-06-14T04:19:26;94988.91;;;15.90;90.25
61961;BME280;47923;42.506;24.192;2023-06-14T04:21:51;95217.22;;;17.44;90.21
61961;BME280;47923;42.506;24.192;2023-06-14T04:24:17;95261.38;;;17.73;89.54
61961;BME280;47923;42.506;24.192;2023-06-14T04:26:43;95280.91;;;17.72;88.89
61961;BME280;47923;42.506;24.192;2023-06-14T04:29:17;95262.50;;;18.06;88.08
61961;BME280;47923;42.506;24.192;2023-06-14T04:31:45;95145.88;;;17.38;86.29
61961;BME280;47923;42.506;24.192;2023-06-14T04:34:12;95217.75;;;17.97;86.42
61961;BME280;47923;42.506;24.192;2023-06-14T04:36:42;95273.72;;;18.42;86.24
61961;BME280;47923;42.506;24.192;2023-06-14T04:39:18;94771.41;;;15.17;85.05
61961;BME280;47923;42.506;24.192;2023-06-14T04:41:44;95251.53;;;18.64;84.74
61961;BME280;47923;42.506;24.192;2023-06-14T04:44:09;95147.97;;;18.15;83.86
61961;BME280;47923;42.506;24.192;2023-06-14T04:46:35;95009.22;;;17.22;83.78
61961;BME280;47923;42.506;24.192;2023-06-14T04:49:09;95216.09;;;18.80;83.67
61961;BME280;47923;42.506;24.192;2023-06-14T04:51:35;95283.38;;;19.48;81.31
61961;BME280;47923;42.506;24.192;2023-06-14T04:54:02;95167.81;;;19.13;79.58
61961;BME280;47923;42.506;24.192;2023-06-14T04:56:29;95287.22;;;19.94;78.36
61961;BME280;47923;42.506;24.192;2023-06-14T04:58:55;94924.50;;;17.53;76.94
61961;BME280;47923;42.506;24.192;2023-06-14T05:01:21;94924.72;;;17.62;77.07
61961;BME280;47923;42.506;24.192;2023-06-14T05:03:48;95278.91;;;19.97;76.29
61961;BME280;47923;42.506;24.192;2023-06-14T05:06:15;95133.22;;;18.80;77.41
61961;BME280;47923;42.506;24.192;2023-06-14T05:08:41;95278.63;;;19.72;78.31
61961;BME280;47923;42.506;24.192;2023-06-14T05:11:06;94940.41;;;17.58;77.59
61961;BME280;47923;42.506;24.192;2023-06-14T05:13:32;95278.13;;;20.17;76.82
61961;BME280;47923;42.506;24.192;2023-06-14T05:15:58;95280.81;;;20.36;76.89
61961;BME280;47923;42.506;24.192;2023-06-14T05:18:24;95235.84;;;19.98;75.35
61961;BME280;47923;42.506;24.192;2023-06-14T05:20:50;95299.16;;;20.92;73.56
61961;BME280;47923;42.506;24.192;2023-06-14T05:23:16;95307.69;;;20.97;72.51
61961;BME280;47923;42.506;24.192;2023-06-14T05:25:43;95070.44;;;18.92;72.32
61961;BME280;47923;42.506;24.192;2023-06-14T05:28:08;94854.13;;;17.60;72.45
61961;BME280;47923;42.506;24.192;2023-06-14T05:30:35;95014.94;;;18.72;72.54
61961;BME280;47923;42.506;24.192;2023-06-14T05:33:01;95304.16;;;20.64;71.94
61961;BME280;47923;42.506;24.192;2023-06-14T05:35:26;95308.06;;;20.63;72.31
61961;BME280;47923;42.506;24.192;2023-06-14T05:37:52;95303.00;;;20.46;72.38
61961;BME280;47923;42.506;24.192;2023-06-14T05:40:19;95196.56;;;19.84;72.85
61961;BME280;47923;42.506;24.192;2023-06-14T05:42:44;95323.94;;;20.36;73.25
61961;BME280;47923;42.506;24.192;2023-06-14T05:45:10;95237.72;;;19.81;72.56
61961;BME280;47923;42.506;24.192;2023-06-14T05:47:35;95309.81;;;20.37;72.57
61961;BME280;47923;42.506;24.192;2023-06-14T05:50:00;95290.47;;;20.25;72.29
61961;BME280;47923;42.506;24.192;2023-06-14T05:52:26;95294.59;;;20.33;72.20
61961;BME280;47923;42.506;24.192;2023-06-14T05:54:51;95212.00;;;19.75;72.15
61961;BME280;47923;42.506;24.192;2023-06-14T05:57:17;95321.22;;;20.88;71.38
61961;BME280;47923;42.506;24.192;2023-06-14T05:59:42;95318.47;;;21.21;69.29
61961;BME280;47923;42.506;24.192;2023-06-14T06:02:08;95250.81;;;21.27;68.50
61961;BME280;47923;42.506;24.192;2023-06-14T06:04:33;95259.16;;;21.69;65.05
61961;BME280;47923;42.506;24.192;2023-06-14T06:06:59;95324.59;;;22.32;64.30
61961;BME280;47923;42.506;24.192;2023-06-14T06:09:24;95081.19;;;20.28;64.12
61961;BME280;47923;42.506;24.192;2023-06-14T06:11:50;94900.25;;;18.97;65.60
61961;BME280;47923;42.506;24.192;2023-06-14T06:14:15;95213.16;;;21.28;66.60
61961;BME280;47923;42.506;24.192;2023-06-14T06:16:41;94961.09;;;19.57;64.01
61961;BME280;47923;42.506;24.192;2023-06-14T06:19:07;95317.22;;;22.00;63.00
61961;BME280;47923;42.506;24.192;2023-06-14T06:21:32;95312.41;;;22.04;63.98
61961;BME280;47923;42.506;24.192;2023-06-14T06:23:57;95318.50;;;22.12;61.42
61961;BME280;47923;42.506;24.192;2023-06-14T06:26:23;94928.63;;;19.72;63.16
61961;BME280;47923;42.506;24.192;2023-06-14T06:28:48;95155.41;;;21.44;62.33
61961;BME280;47923;42.506;24.192;2023-06-14T06:31:14;95317.47;;;22.60;60.89
61961;BME280;47923;42.506;24.192;2023-06-14T06:33:40;95309.88;;;22.51;60.81
61961;BME280;47923;42.506;24.192;2023-06-14T06:36:05;95326.72;;;22.41;60.71
61961;BME280;47923;42.506;24.192;2023-06-14T06:38:31;95259.84;;;22.15;60.36
61961;BME280;47923;42.506;24.192;2023-06-14T06:40:57;95302.81;;;22.76;59.65
61961;BME280;47923;42.506;24.192;2023-06-14T06:43:22;95272.44;;;22.41;59.90
61961;BME280;47923;42.506;24.192;2023-06-14T06:45:48;95333.16;;;23.14;58.90
61961;BME280;47923;42.506;24.192;2023-06-14T06:48:13;95208.81;;;22.26;56.66
61961;BME280;47923;42.506;24.192;2023-06-14T06:50:38;95277.97;;;22.92;57.65
61961;BME280;47923;42.506;24.192;2023-06-14T06:53:04;95342.09;;;23.65;58.27
61961;BME280;47923;42.506;24.192;2023-06-14T06:55:30;95341.91;;;23.94;58.37
61961;BME280;47923;42.506;24.192;2023-06-14T06:57:56;95134.69;;;22.45;57.79
61961;BME280;47923;42.506;24.192;2023-06-14T07:00:21;95339.22;;;23.69;58.03
61961;BME280;47923;42.506;24.192;2023-06-14T07:02:47;95082.44;;;21.43;58.63
61961;BME280;47923;42.506;24.192;2023-06-14T07:05:13;95076.28;;;21.51;57.09
61961;BME280;47923;42.506;24.192;2023-06-14T07:07:38;94830.69;;;19.89;57.70
61961;BME280;47923;42.506;24.192;2023-06-14T07:10:04;95348.09;;;23.26;57.80
61961;BME280;47923;42.506;24.192;2023-06-14T07:12:33;95352.38;;;22.76;60.89
61961;BME280;47923;42.506;24.192;2023-06-14T07:15:01;95352.19;;;22.70;61.49
61961;BME280;47923;42.506;24.192;2023-06-14T07:17:27;95353.03;;;22.54;61.56
61961;BME280;47923;42.506;24.192;2023-06-14T07:19:52;94952.50;;;19.88;60.52
61961;BME280;47923;42.506;24.192;2023-06-14T07:22:19;95351.69;;;22.46;60.97
61961;BME280;47923;42.506;24.192;2023-06-14T07:24:45;95349.66;;;22.63;61.66
61961;BME280;47923;42.506;24.192;2023-06-14T07:27:10;94869.47;;;19.10;60.84
61961;BME280;47923;42.506;24.192;2023-06-14T07:29:36;95210.41;;;21.28;60.86
61961;BME280;47923;42.506;24.192;2023-06-14T07:32:02;95232.31;;;21.60;61.72
61961;BME280;47923;42.506;24.192;2023-06-14T07:34:27;95082.91;;;20.83;58.81
61961;BME280;47923;42.506;24.192;2023-06-14T07:36:53;95173.47;;;21.45;59.99
61961;BME280;47923;42.506;24.192;2023-06-14T07:39:19;95363.19;;;22.57;59.70
61961;BME280;47923;42.506;24.192;2023-06-14T07:41:45;95004.56;;;20.21;59.86
61961;BME280;47923;42.506;24.192;2023-06-14T07:44:10;95294.84;;;22.14;60.58
61961;BME280;47923;42.506;24.192;2023-06-14T07:46:37;95303.47;;;22.00;61.11
61961;BME280;47923;42.506;24.192;2023-06-14T07:49:03;95370.34;;;22.55;61.28
61961;BME280;47923;42.506;24.192;2023-06-14T07:51:29;95267.78;;;21.84;60.66
61961;BME280;47923;42.506;24.192;2023-06-14T07:53:54;95084.28;;;20.75;60.02
61961;BME280;47923;42.506;24.192;2023-06-14T07:56:20;95366.81;;;22.67;59.64
61961;BME280;47923;42.506;24.192;2023-06-14T07:58:45;95358.13;;;22.56;61.21
61961;BME280;47923;42.506;24.192;2023-06-14T08:01:11;95381.84;;;22.37;60.74
61961;BME280;47923;42.506;24.192;2023-06-14T08:03:37;95281.94;;;21.69;61.47
61961;BME280;47923;42.506;24.192;2023-06-14T08:06:03;95052.19;;;20.27;60.97
61961;BME280;47923;42.506;24.192;2023-06-14T08:08:29;95373.00;;;22.71;59.14
61961;BME280;47923;42.506;24.192;2023-06-14T08:10:55;95370.50;;;23.02;58.06
61961;BME280;47923;42.506;24.192;2023-06-14T08:13:21;95374.78;;;23.29;56.95
61961;BME280;47923;42.506;24.192;2023-06-14T08:15:46;95383.75;;;23.80;56.78
61961;BME280;47923;42.506;24.192;2023-06-14T08:18:12;95335.69;;;23.68;55.67
61961;BME280;47923;42.506;24.192;2023-06-14T08:20:37;95361.09;;;23.85;55.13
61961;BME280;47923;42.506;24.192;2023-06-14T08:23:03;95239.88;;;23.12;53.36
61961;BME280;47923;42.506;24.192;2023-06-14T08:25:30;95383.56;;;25.06;51.13
61961;BME280;47923;42.506;24.192;2023-06-14T08:27:56;95236.84;;;24.33;49.21
61961;BME280;47923;42.506;24.192;2023-06-14T08:30:22;95323.47;;;25.38;47.98
61961;BME280;47923;42.506;24.192;2023-06-14T08:32:47;95263.88;;;25.82;47.06
61961;BME280;47923;42.506;24.192;2023-06-14T08:35:13;95272.72;;;26.84;44.30
61961;BME280;47923;42.506;24.192;2023-06-14T08:37:40;95123.66;;;25.98;43.58
61961;BME280;47923;42.506;24.192;2023-06-14T08:40:20;95379.31;;;28.74;41.51
61961;BME280;47923;42.506;24.192;2023-06-14T08:42:48;95011.16;;;27.05;40.42
61961;BME280;47923;42.506;24.192;2023-06-14T08:45:15;95301.41;;;29.74;39.13
61961;BME280;47923;42.506;24.192;2023-06-14T08:47:41;95372.03;;;31.16;36.96
61961;BME280;47923;42.506;24.192;2023-06-14T08:50:07;95312.09;;;30.48;35.37
61961;BME280;47923;42.506;24.192;2023-06-14T08:52:37;95143.69;;;29.45;35.95
61961;BME280;47923;42.506;24.192;2023-06-14T08:55:11;95373.78;;;31.45;34.72
61961;BME280;47923;42.506;24.192;2023-06-14T08:57:37;95172.53;;;30.89;34.50
61961;BME280;47923;42.506;24.192;2023-06-14T09:00:04;95368.00;;;32.02;33.53
61961;BME280;47923;42.506;24.192;2023-06-14T09:02:37;95366.69;;;31.44;34.05
61961;BME280;47923;42.506;24.192;2023-06-14T09:05:03;95390.72;;;32.27;34.49
61961;BME280;47923;42.506;24.192;2023-06-14T09:07:28;95361.88;;;32.80;32.19
61961;BME280;47923;42.506;24.192;2023-06-14T09:10:10;95363.84;;;33.86;31.52
61961;BME280;47923;42.506;24.192;2023-06-14T09:12:36;95235.59;;;34.80;27.74
61961;BME280;47923;42.506;24.192;2023-06-14T09:15:05;95363.34;;;35.77;28.56
61961;BME280;47923;42.506;24.192;2023-06-14T09:17:37;95268.47;;;35.40;27.65
61961;BME280;47923;42.506;24.192;2023-06-14T09:20:04;95029.66;;;33.14;28.04
61961;BME280;47923;42.506;24.192;2023-06-14T09:22:39;95326.66;;;35.15;28.09
61961;BME280;47923;42.506;24.192;2023-06-14T09:25:06;95348.53;;;35.77;27.52
61961;BME280;47923;42.506;24.192;2023-06-14T09:27:32;95354.75;;;38.45;24.58
61961;BME280;47923;42.506;24.192;2023-06-14T09:29:57;95242.41;;;38.23;22.63
61961;BME280;47923;42.506;24.192;2023-06-14T09:32:23;95340.63;;;40.56;21.59
61961;BME280;47923;42.506;24.192;2023-06-14T09:34:49;95079.38;;;38.99;21.59
61961;BME280;47923;42.506;24.192;2023-06-14T09:37:30;95265.28;;;39.08;21.07
61961;BME280;47923;42.506;24.192;2023-06-14T09:39:56;95065.81;;;38.69;20.83
61961;BME280;47923;42.506;24.192;2023-06-14T09:42:21;95310.75;;;41.45;20.25
61961;BME280;47923;42.506;24.192;2023-06-14T09:44:49;94877.81;;;37.44;20.35
61961;BME280;47923;42.506;24.192;2023-06-14T09:47:15;95268.13;;;41.98;20.53
61961;BME280;47923;42.506;24.192;2023-06-14T09:49:42;95049.06;;;40.10;20.04
61961;BME280;47923;42.506;24.192;2023-06-14T09:52:14;95304.53;;;41.38;19.60
61961;BME280;47923;42.506;24.192;2023-06-14T09:54:44;95328.16;;;40.08;22.01
61961;BME280;47923;42.506;24.192;2023-06-14T09:57:23;94805.53;;;33.67;25.60
61961;BME280;47923;42.506;24.192;2023-06-14T09:59:53;95316.41;;;37.63;23.62
61961;BME280;47923;42.506;24.192;2023-06-14T10:02:29;95266.50;;;37.31;24.01
61961;BME280;47923;42.506;24.192;2023-06-14T10:05:07;95254.38;;;35.70;25.65
61961;BME280;47923;42.506;24.192;2023-06-14T10:07:59;95308.44;;;37.21;23.49
61961;BME280;47923;42.506;24.192;2023-06-14T10:10:45;94700.88;;;34.26;23.99
61961;BME280;47923;42.506;24.192;2023-06-14T10:13:11;95290.09;;;37.15;24.18
61961;BME280;47923;42.506;24.192;2023-06-14T10:15:43;94777.59;;;34.04;23.46
61961;BME280;47923;42.506;24.192;2023-06-14T10:18:28;95044.47;;;36.29;22.88
61961;BME280;47923;42.506;24.192;2023-06-14T10:21:05;95062.69;;;38.52;21.38
61961;BME280;47923;42.506;24.192;2023-06-14T10:23:37;95299.56;;;38.23;21.71
61961;BME280;47923;42.506;24.192;2023-06-14T10:26:03;95074.03;;;36.49;22.96
61961;BME280;47923;42.506;24.192;2023-06-14T10:28:28;95280.34;;;37.02;24.38
61961;BME280;47923;42.506;24.192;2023-06-14T10:31:09;95204.91;;;36.37;25.39
61961;BME280;47923;42.506;24.192;2023-06-14T10:33:56;95278.97;;;35.09;26.31
61961;BME280;47923;42.506;24.192;2023-06-14T10:39:09;95300.03;;;33.45;29.70
61961;BME280;47923;42.506;24.192;2023-06-14T10:41:37;95295.50;;;32.53;31.25
61961;BME280;47923;42.506;24.192;2023-06-14T10:46:56;95292.31;;;32.00;31.40
61961;BME280;47923;42.506;24.192;2023-06-14T10:49:44;95293.63;;;32.22;31.13
61961;BME280;47923;42.506;24.192;2023-06-14T10:52:15;95001.91;;;28.84;34.81
61961;BME280;47923;42.506;24.192;2023-06-14T10:54:59;95278.09;;;30.12;35.98
61961;BME280;47923;42.506;24.192;2023-06-14T10:57:25;94928.13;;;27.46;36.73
61961;BME280;47923;42.506;24.192;2023-06-14T10:59:51;95284.88;;;29.09;38.23
61961;BME280;47923;42.506;24.192;2023-06-14T11:04:49;95286.75;;;28.53;38.92
61961;BME280;47923;42.506;24.192;2023-06-14T11:10:38;95094.50;;;26.78;40.01
61961;BME280;47923;42.506;24.192;2023-06-14T11:13:05;95287.13;;;27.06;42.53
61961;BME280;47923;42.506;24.192;2023-06-14T11:15:32;95286.66;;;27.56;42.56
61961;BME280;47923;42.506;24.192;2023-06-14T11:18:01;95187.50;;;26.69;43.22
61961;BME280;47923;42.506;24.192;2023-06-14T11:20:27;95281.09;;;27.32;43.39
61961;BME280;47923;42.506;24.192;2023-06-14T11:22:53;95286.97;;;27.34;42.19
61961;BME280;47923;42.506;24.192;2023-06-14T11:25:19;95271.97;;;27.16;43.31
61961;BME280;47923;42.506;24.192;2023-06-14T11:27:46;95294.22;;;26.98;43.27
61961;BME280;47923;42.506;24.192;2023-06-14T11:30:13;95102.28;;;25.28;44.12
61961;BME280;47923;42.506;24.192;2023-06-14T11:32:39;95238.44;;;26.39;43.72
61961;BME280;47923;42.506;24.192;2023-06-14T11:35:06;95266.03;;;27.33;43.89
61961;BME280;47923;42.506;24.192;2023-06-14T11:37:33;95190.25;;;26.46;43.53
61961;BME280;47923;42.506;24.192;2023-06-14T11:39:59;95269.34;;;26.28;44.70
61961;BME280;47923;42.506;24.192;2023-06-14T11:42:28;94921.34;;;24.14;44.38
61961;BME280;47923;42.506;24.192;2023-06-14T11:44:54;95270.56;;;26.46;44.62
61961;BME280;47923;42.506;24.192;2023-06-14T11:47:20;95266.47;;;26.04;45.40
61961;BME280;47923;42.506;24.192;2023-06-14T11:49:46;94987.94;;;24.34;43.74
61961;BME280;47923;42.506;24.192;2023-06-14T11:52:12;94929.03;;;24.28;44.06
61961;BME280;47923;42.506;24.192;2023-06-14T11:54:37;95055.78;;;24.90;43.77
61961;BME280;47923;42.506;24.192;2023-06-14T11:57:04;94877.09;;;23.50;45.08
61961;BME280;47923;42.506;24.192;2023-06-14T11:59:30;95214.09;;;26.43;43.48
61961;BME280;47923;42.506;24.192;2023-06-14T12:01:56;95001.91;;;24.76;43.84
61961;BME280;47923;42.506;24.192;2023-06-14T12:04:26;95053.63;;;25.13;43.89
61961;BME280;47923;42.506;24.192;2023-06-14T12:06:52;95258.16;;;26.13;44.80
61961;BME280;47923;42.506;24.192;2023-06-14T12:09:21;94909.31;;;23.62;44.20
61961;BME280;47923;42.506;24.192;2023-06-14T12:11:51;95163.06;;;25.47;44.28
61961;BME280;47923;42.506;24.192;2023-06-14T12:14:29;95252.03;;;26.09;45.69
61961;BME280;47923;42.506;24.192;2023-06-14T12:17:04;95242.34;;;25.68;45.85
61961;BME280;47923;42.506;24.192;2023-06-14T12:19:31;95244.06;;;25.66;45.74
61961;BME280;47923;42.506;24.192;2023-06-14T12:21:59;94914.22;;;23.17;46.77
61961;BME280;47923;42.506;24.192;2023-06-14T12:24:28;95185.34;;;25.06;46.97
61961;BME280;47923;42.506;24.192;2023-06-14T12:26:56;95164.72;;;24.89;46.24
61961;BME280;47923;42.506;24.192;2023-06-14T12:29:22;95017.81;;;24.26;44.80
61961;BME280;47923;42.506;24.192;2023-06-14T12:31:49;95070.50;;;24.87;44.37
61961;BME280;47923;42.506;24.192;2023-06-14T12:34:14;95111.94;;;25.42;44.37
61961;BME280;47923;42.506;24.192;2023-06-14T12:36:40;95241.16;;;26.48;45.70
61961;BME280;47923;42.506;24.192;2023-06-14T12:39:09;95124.22;;;25.50;46.56
61961;BME280;47923;42.506;24.192;2023-06-14T12:41:34;95230.22;;;25.38;47.54
61961;BME280;47923;42.506;24.192;2023-06-14T12:44:01;95165.94;;;24.70;48.68
61961;BME280;47923;42.506;24.192;2023-06-14T12:46:30;94916.63;;;23.06;48.18
61961;BME280;47923;42.506;24.192;2023-06-14T12:48:56;95222.34;;;25.18;47.88
61961;BME280;47923;42.506;24.192;2023-06-14T12:51:22;94599.69;;;21.31;47.58
61961;BME280;47923;42.506;24.192;2023-06-14T12:53:48;94853.41;;;22.81;47.27
61961;BME280;47923;42.506;24.192;2023-06-14T12:56:14;95218.69;;;25.58;47.29
61961;BME280;47923;42.506;24.192;2023-06-14T12:58:41;95227.41;;;25.11;47.59
61961;BME280;47923;42.506;24.192;2023-06-14T13:01:07;95251.66;;;24.97;47.88
61961;BME280;47923;42.506;24.192;2023-06-14T13:03:33;94645.88;;;21.45;47.04